Time;durP1;ratioP1;P1;durP2;ratioP2;P2;SDS_P1;SDS_P2;PMS_P1;PMS_P2;Temp;Humidity;BMP_temperature;BMP_pressure;BME280_temperature;BME280_humidity;BME280_pressure;Samples;Min_cycle;Max_cycle;Signal;HPM_P1;HPM_P2
2022/05/31 00:00:06;;;;;;;1008.03;942.70;;;;;;;11.28;60.05;101094.06;691653;28;44434;-66
2022/05/31 00:00:34;;;;;;;1005.70;940.33;;;;;;;11.25;60.21;101090.84;687891;28;137319;-66
2022/05/31 00:00:55;;;;;;;1005.85;940.55;;;;;;;11.26;60.03;101093.38;691074;28;45216;-66
2022/05/31 00:01:16;;;;;;;997.25;932.30;;;;;;;11.27;59.95;101094.22;691862;28;22395;-65
2022/05/31 00:01:38;;;;;;;1004.60;939.28;;;;;;;11.26;60.25;101092.56;692370;28;23416;-64
2022/05/31 00:02:00;;;;;;;1016.35;950.65;;;;;;;11.26;60.22;101096.09;691668;28;46334;-65
2022/05/31 00:02:23;;;;;;;1007.20;941.90;;;;;;;11.25;59.94;101088.16;690653;28;70337;-66
2022/05/31 00:02:45;;;;;;;1014.78;949.17;;;;;;;11.25;59.67;101099.81;687408;28;69492;-65
2022/05/31 00:03:07;;;;;;;1020.38;954.67;;;;;;;11.26;60.23;101100.66;689006;28;45272;-65
2022/05/31 00:03:28;;;;;;;1009.38;943.97;;;;;;;11.25;60.24;101099.81;689315;28;21515;-66
2022/05/31 00:03:50;;;;;;;1021.75;955.83;;;;;;;11.26;60.30;101101.50;689423;28;24357;-65
2022/05/31 00:04:11;;;;;;;1026.45;960.20;;;;;;;11.25;60.19;101097.09;688682;28;45232;-65
2022/05/31 00:04:33;;;;;;;1048.45;980.85;;;;;;;11.26;60.41;101097.97;688943;28;22219;-66
2022/05/31 00:04:54;;;;;;;1034.95;967.97;;;;;;;11.26;60.06;101100.66;690990;28;70414;-67
2022/05/31 00:05:16;;;;;;;1048.28;980.80;;;;;;;11.23;60.18;101093.75;692676;28;23401;-66
2022/05/31 00:05:38;;;;;;;1043.28;975.92;;;;;;;11.24;60.12;101106.25;691517;28;44393;-66
2022/05/31 00:05:59;;;;;;;1040.50;973.40;;;;;;;11.24;60.40;101102.69;691829;28;45353;-67
2022/05/31 00:06:20;;;;;;;1026.00;959.75;;;;;;;11.18;60.34;101096.97;692123;28;21514;-66
2022/05/31 00:06:42;;;;;;;1014.22;948.47;;;;;;;11.24;60.57;101102.69;692300;28;22386;-66
2022/05/31 00:07:04;;;;;;;1023.67;957.30;;;;;;;11.24;60.62;101100.84;691426;28;22395;-66
2022/05/31 00:07:25;;;;;;;1049.15;981.35;;;;;;;11.25;60.38;101104.38;690013;28;69280;-66
2022/05/31 00:07:46;;;;;;;1038.80;971.45;;;;;;;11.25;60.19;101102.50;692326;28;21109;-65
2022/05/31 00:08:08;;;;;;;1027.00;960.65;;;;;;;11.22;60.50;101097.44;692441;28;22415;-66
2022/05/31 00:08:30;;;;;;;1023.53;957.50;;;;;;;11.22;60.23;101099.31;691471;28;46282;-66
2022/05/31 00:08:52;;;;;;;1013.55;947.88;;;;;;;11.20;60.68;101098.66;691800;28;44381;-66
2022/05/31 00:09:14;;;;;;;1003.15;937.85;;;;;;;11.21;60.26;101101.19;691245;28;46424;-66
2022/05/31 00:09:35;;;;;;;1014.72;948.85;;;;;;;11.23;60.60;101103.72;690470;28;45223;-66
2022/05/31 00:09:57;;;;;;;1014.53;948.63;;;;;;;11.22;60.37;101105.56;692549;28;21507;-67
2022/05/31 00:10:18;;;;;;;1021.50;955.47;;;;;;;11.23;60.37;101111.81;691556;28;45197;-66
2022/05/31 00:10:39;;;;;;;1033.45;966.95;;;;;;;11.16;60.23;101096.28;692457;28;20852;-67
2022/05/31 00:11:00;;;;;;;1025.63;959.50;;;;;;;11.21;60.52;101098.47;692708;28;23626;-66
2022/05/31 00:11:22;;;;;;;1010.60;945.00;;;;;;;11.19;60.57;101103.22;692138;28;23647;-67
2022/05/31 00:11:44;;;;;;;1010.85;945.15;;;;;;;11.17;60.73;101108.81;691415;28;44440;-67
2022/05/31 00:12:06;;;;;;;1016.75;950.92;;;;;;;11.17;60.87;101103.41;692009;28;45004;-66
2022/05/31 00:12:27;;;;;;;1014.75;948.92;;;;;;;11.17;60.58;101098.00;691431;28;45217;-66
2022/05/31 00:12:49;;;;;;;1016.35;950.58;;;;;;;11.17;60.75;101100.69;692354;28;22375;-67
2022/05/31 00:13:11;;;;;;;1014.67;949.00;;;;;;;11.14;60.89;101103.75;691896;28;46345;-66
2022/05/31 00:13:32;;;;;;;1009.53;944.00;;;;;;;11.15;60.78;101105.41;691318;28;46286;-66
2022/05/31 00:13:53;;;;;;;1012.95;947.22;;;;;;;11.14;61.08;101106.44;692460;28;21524;-66
2022/05/31 00:14:15;;;;;;;1010.15;944.63;;;;;;;11.14;60.92;101111.00;691438;28;46282;-66
2022/05/31 00:14:38;;;;;;;1027.20;960.88;;;;;;;11.14;61.14;101108.28;690428;28;46385;-66
2022/05/31 00:14:59;;;;;;;1026.00;959.70;;;;;;;11.14;61.03;101116.41;691334;28;46316;-66
2022/05/31 00:15:21;;;;;;;1023.90;957.72;;;;;;;11.13;61.09;101106.63;691537;28;45332;-66
2022/05/31 00:15:42;;;;;;;1029.38;962.97;;;;;;;11.13;61.15;101112.03;692602;28;23468;-66
2022/05/31 00:16:04;;;;;;;1027.53;961.08;;;;;;;11.13;61.29;101112.84;691716;28;23578;-67
2022/05/31 00:16:25;;;;;;;1035.32;968.63;;;;;;;11.13;61.26;101110.16;691153;28;46304;-66
2022/05/31 00:16:47;;;;;;;1034.72;968.03;;;;;;;11.12;61.04;101102.22;691246;28;45259;-65
2022/05/31 00:17:08;;;;;;;1014.33;948.38;;;;;;;11.14;61.04;101108.28;691133;28;45319;-64
2022/05/31 00:17:29;;;;;;;1010.90;945.10;;;;;;;11.13;60.98;101115.56;692246;28;21541;-66
2022/05/31 00:17:51;;;;;;;1004.75;939.17;;;;;;;11.11;61.06;101109.50;691821;28;22398;-66
2022/05/31 00:18:13;;;;;;;1012.80;946.92;;;;;;;11.08;61.16;101103.56;691857;28;46245;-65
2022/05/31 00:18:34;;;;;;;1008.10;942.42;;;;;;;11.13;60.80;101109.31;691941;28;21194;-66
2022/05/31 00:18:55;;;;;;;1012.78;947.05;;;;;;;11.12;61.21;101105.75;691771;28;21400;-66
2022/05/31 00:19:18;;;;;;;1016.42;950.55;;;;;;;11.12;61.24;101110.31;690416;28;46244;-66
2022/05/31 00:19:40;;;;;;;1020.65;954.50;;;;;;;11.11;61.19;101106.78;688906;28;68295;-66
2022/05/31 00:20:01;;;;;;;1024.57;958.38;;;;;;;11.11;60.75;101106.78;692196;28;22367;-65
2022/05/31 00:20:22;;;;;;;1013.58;947.78;;;;;;;11.10;60.97;101102.38;691556;28;23495;-66
2022/05/31 00:20:44;;;;;;;1001.20;935.80;;;;;;;11.11;61.02;101112.19;691711;28;45207;-66
2022/05/31 00:21:07;;;;;;;998.17;932.90;;;;;;;11.11;60.93;101105.91;691410;28;45338;-66
2022/05/31 00:21:36;;;;;;;1002.17;936.70;;;;;;;11.12;61.05;101102.22;690346;28;67481;-66
2022/05/31 00:22:03;;;;;;;1013.38;947.60;;;;;;;11.11;60.86;101109.50;688619;28;137599;-66
2022/05/31 00:22:27;;;;;;;1005.92;940.55;;;;;;;11.11;60.80;101106.78;688323;28;138056;-67
2022/05/31 00:22:48;;;;;;;997.90;932.83;;;;;;;11.12;60.76;101102.22;689282;28;92245;-66
2022/05/31 00:23:09;;;;;;;996.35;931.33;;;;;;;11.12;61.28;101107.63;692573;28;22393;-66
2022/05/31 00:23:30;;;;;;;1002.97;937.63;;;;;;;11.10;61.11;101101.56;692189;28;23526;-66
2022/05/31 00:23:52;;;;;;;1000.50;935.20;;;;;;;11.11;61.02;101105.91;692563;28;21521;-66
2022/05/31 00:24:16;;;;;;;1009.58;944.03;;;;;;;11.11;60.97;101100.50;690988;28;47423;-66
2022/05/31 00:24:39;;;;;;;1005.00;939.50;;;;;;;11.09;60.98;101097.97;688195;28;92682;-67
2022/05/31 00:25:00;;;;;;;1012.40;946.60;;;;;;;11.09;61.25;101106.09;690960;28;69574;-66
2022/05/31 00:25:23;;;;;;;1005.97;940.53;;;;;;;11.10;60.76;101098.84;692135;28;22231;-66
2022/05/31 00:25:44;;;;;;;1004.75;939.30;;;;;;;11.10;60.93;101109.66;690549;28;68409;-67
2022/05/31 00:26:05;;;;;;;995.08;929.97;;;;;;;11.10;60.97;101099.69;692265;28;22214;-66
2022/05/31 00:26:26;;;;;;;997.85;932.63;;;;;;;11.10;61.05;101099.69;692232;28;22373;-66
2022/05/31 00:26:48;;;;;;;998.50;933.20;;;;;;;11.09;61.04;101106.09;691962;28;22380;-65
2022/05/31 00:27:12;;;;;;;1002.42;936.75;;;;;;;11.10;61.00;101107.78;687067;28;67465;-66
2022/05/31 00:27:33;;;;;;;1012.13;946.25;;;;;;;11.10;61.13;101107.78;687141;28;70282;-67
2022/05/31 00:28:05;;;;;;;1006.97;941.40;;;;;;;11.10;61.20;101101.56;686716;28;98530;-66
2022/05/31 00:28:27;;;;;;;1008.22;942.65;;;;;;;11.11;61.01;101103.22;688016;28;46372;-65
2022/05/31 00:28:48;;;;;;;1008.55;942.85;;;;;;;11.09;61.19;101100.69;686403;28;69416;-67
2022/05/31 00:29:10;;;;;;;1009.03;943.45;;;;;;;11.10;61.11;101110.50;690534;28;22291;-66
2022/05/31 00:29:32;;;;;;;1012.80;947.05;;;;;;;11.10;60.81;101099.69;688141;28;46178;-67
2022/05/31 00:29:54;;;;;;;1005.67;940.08;;;;;;;11.09;60.87;101100.69;688901;28;21529;-67
2022/05/31 00:30:16;;;;;;;992.35;927.40;;;;;;;11.11;61.20;101097.81;687918;28;67523;-66
2022/05/31 00:30:37;;;;;;;995.67;930.55;;;;;;;11.10;60.87;101105.09;690319;28;22392;-67
2022/05/31 00:30:58;;;;;;;1002.08;936.67;;;;;;;11.11;61.02;101103.22;690835;28;21511;-67
2022/05/31 00:31:20;;;;;;;1000.23;935.03;;;;;;;11.11;61.08;101100.50;689795;28;47436;-65
2022/05/31 00:31:43;;;;;;;997.17;932.05;;;;;;;11.11;61.04;101098.69;690492;28;46368;-66
2022/05/31 00:32:07;;;;;;;996.35;931.17;;;;;;;11.13;61.01;101101.22;686863;28;46370;-66
2022/05/31 00:32:32;;;;;;;1004.67;939.17;;;;;;;11.12;61.23;101111.16;683026;28;115108;-66
2022/05/31 00:32:54;;;;;;;;;;;;;;;11.12;61.29;101096.81;682854;28;113548;-66
2022/05/31 00:33:15;;;;;;;999.50;934.30;;;;;;;11.11;61.12;101106.78;686366;28;21400;-66
2022/05/31 00:33:36;;;;;;;;;;;;;;;11.11;60.94;101100.50;686676;28;5089;-67
2022/05/31 00:33:57;;;;;;;;;;;;;;;11.10;61.16;101107.78;689240;28;1062;-66
2022/05/31 00:34:18;;;;;;;1008.90;943.30;;;;;;;11.11;60.81;101100.50;691573;28;1603;-66
2022/05/31 00:34:43;;;;;;;1024.30;958.08;;;;;;;11.06;61.21;101095.63;686935;28;37306;-66
2022/05/31 00:35:06;;;;;;;1034.00;967.00;;;;;;;11.11;61.15;101103.22;686584;28;113506;-65
2022/05/31 00:35:30;;;;;;;1009.80;944.00;;;;;;;11.11;60.97;101103.22;687428;28;69407;-65
2022/05/31 00:35:53;;;;;;;1022.03;955.60;;;;;;;11.10;60.98;101091.56;684985;28;69405;-67
2022/05/31 00:36:16;;;;;;;1014.10;947.92;;;;;;;11.11;61.09;101095.97;683604;28;90320;-67
2022/05/31 00:36:38;;;;;;;1009.65;943.60;;;;;;;11.10;60.84;101098.84;687797;28;46333;-66
2022/05/31 00:37:00;;;;;;;1019.33;952.70;;;;;;;11.11;61.03;101103.22;687559;28;67508;-65
2022/05/31 00:37:22;;;;;;;1026.72;959.72;;;;;;;11.06;60.92;101095.63;688701;28;43108;-67
2022/05/31 00:37:43;;;;;;;1029.65;962.60;;;;;;;11.07;61.24;101096.50;689335;28;44200;-65
2022/05/31 00:38:06;;;;;;;1030.32;963.33;;;;;;;11.04;61.15;101094.97;688082;28;45242;-66
2022/05/31 00:38:27;;;;;;;1025.22;958.42;;;;;;;11.10;61.25;101098.84;688461;28;46488;-66
2022/05/31 00:38:49;;;;;;;1020.83;954.20;;;;;;;11.07;61.37;101096.50;689510;28;23502;-66
2022/05/31 00:39:10;;;;;;;1023.30;956.72;;;;;;;11.10;61.21;101096.16;687385;28;45347;-66
2022/05/31 00:39:31;;;;;;;1029.30;962.38;;;;;;;11.10;61.33;101101.56;687366;28;23584;-66
2022/05/31 00:39:54;;;;;;;1025.95;959.22;;;;;;;11.10;61.16;101098.84;689746;28;2540;-66
2022/05/31 00:40:18;;;;;;;1018.05;951.65;;;;;;;11.10;61.10;101096.97;692221;28;22276;-66
2022/05/31 00:40:39;;;;;;;1010.47;944.47;;;;;;;11.11;61.09;101097.81;689589;28;93156;-66
2022/05/31 00:41:23;;;;;;;1014.92;948.97;;;;;;;11.09;61.18;101095.28;691485;28;22365;-66
2022/05/31 00:41:57;;;;;;;1002.92;937.50;;;;;;;11.08;61.23;101096.31;688035;28;137697;-66
2022/05/31 00:42:21;;;;;;;1009.47;943.72;;;;;;;11.10;61.03;101105.09;684820;28;137550;-66
2022/05/31 00:42:49;;;;;;;996.55;931.30;;;;;;;11.10;60.96;101096.16;685775;28;115122;-67
2022/05/31 00:43:14;;;;;;;984.17;919.47;;;;;;;11.09;61.11;101103.38;684994;28;160930;-66
2022/05/31 00:43:36;;;;;;;993.50;928.40;;;;;;;11.10;60.99;101104.25;683103;28;117580;-66
2022/05/31 00:44:01;;;;;;;986.17;921.38;;;;;;;11.07;60.98;101099.19;685941;28;44919;-66
2022/05/31 00:44:26;;;;;;;988.35;923.45;;;;;;;11.09;61.27;101106.09;686887;28;71466;-66
2022/05/31 00:44:49;;;;;;;989.22;924.22;;;;;;;11.07;61.07;101101.91;680615;28;137932;-66
2022/05/31 00:45:10;;;;;;;996.05;930.85;;;;;;;11.06;61.15;101101.03;683258;28;47611;-66
2022/05/31 00:45:34;;;;;;;994.97;929.72;;;;;;;11.08;61.01;101104.44;681334;29;21506;-67
2022/05/31 00:45:58;;;;;;;988.50;923.53;;;;;;;11.09;61.39;101106.09;679570;28;76515;-67
2022/05/31 00:46:21;;;;;;;982.40;917.72;;;;;;;11.09;61.15;101107.97;679275;29;65709;-67
2022/05/31 00:46:46;;;;;;;995.17;929.95;;;;;;;11.08;61.23;101111.66;680058;28;92299;-68
2022/05/31 00:47:12;;;;;;;985.55;920.65;;;;;;;11.07;60.97;101110.00;681958;28;115097;-65
2022/05/31 00:47:33;;;;;;;962.40;898.42;;;;;;;11.06;61.27;101101.03;685314;28;138076;-65
2022/05/31 00:47:56;;;;;;;961.45;897.53;;;;;;;11.05;61.23;101104.78;686131;28;23441;-65
2022/05/31 00:48:20;;;;;;;966.90;902.80;;;;;;;11.06;61.04;101108.31;684531;28;69337;-65
2022/05/31 00:48:47;;;;;;;979.97;915.47;;;;;;;11.05;61.29;101109.31;683586;28;115077;-65
2022/05/31 00:49:09;;;;;;;974.03;909.75;;;;;;;11.03;61.20;101104.06;682962;28;115715;-63
2022/05/31 00:49:35;;;;;;;972.60;908.55;;;;;;;11.06;61.23;101105.59;685503;28;69197;-65
2022/05/31 00:49:57;;;;;;;969.45;905.40;;;;;;;11.05;61.25;101104.78;682571;28;157576;-65
2022/05/31 00:50:24;;;;;;;967.42;903.53;;;;;;;11.05;61.36;101107.47;688068;28;46116;-65
2022/05/31 00:50:47;;;;;;;962.45;898.65;;;;;;;11.06;61.26;101111.00;685492;28;136313;-67
2022/05/31 00:51:15;;;;;;;973.38;909.33;;;;;;;11.06;61.47;101106.44;687543;28;69257;-65
2022/05/31 00:51:39;;;;;;;971.05;906.97;;;;;;;11.05;61.17;101107.47;684800;28;161230;-65
2022/05/31 00:52:04;;;;;;;978.30;914.00;;;;;;;11.02;61.38;101106.94;687097;28;92139;-66
2022/05/31 00:52:30;;;;;;;975.00;910.80;;;;;;;10.99;61.27;101100.88;687374;28;136367;-67
2022/05/31 00:52:57;;;;;;;971.78;907.65;;;;;;;11.03;61.42;101111.34;684587;28;136178;-66
2022/05/31 00:53:22;;;;;;;972.58;908.47;;;;;;;10.99;61.10;101111.69;685022;28;136627;-66
2022/05/31 00:53:45;;;;;;;961.20;897.47;;;;;;;11.00;61.35;101112.53;682986;28;115209;-66
2022/05/31 00:54:09;;;;;;;969.75;905.83;;;;;;;11.00;61.31;101101.72;685840;28;46150;-66
2022/05/31 00:54:32;;;;;;;962.08;898.25;;;;;;;11.00;61.49;101109.81;681187;28;92464;-66
2022/05/31 00:54:54;;;;;;;969.50;905.35;;;;;;;10.97;61.53;101108.31;679886;28;111251;-66
2022/05/31 00:55:19;;;;;;;963.63;899.72;;;;;;;10.98;61.28;101111.84;682769;28;46398;-66
2022/05/31 00:55:44;;;;;;;981.70;917.15;;;;;;;10.96;61.29;101109.31;682880;28;114107;-65
2022/05/31 00:56:10;;;;;;;979.75;915.28;;;;;;;10.96;61.61;101112.03;679871;28;138258;-66
2022/05/31 00:56:31;;;;;;;1014.15;947.80;;;;;;;10.96;61.48;101113.91;682499;28;137231;-67
2022/05/31 00:56:54;;;;;;;1011.88;945.45;;;;;;;10.95;61.67;101109.50;688707;28;22388;-66
2022/05/31 00:57:16;;;;;;;1022.88;955.90;;;;;;;10.95;61.50;101109.50;688145;28;46071;-65
2022/05/31 00:57:42;;;;;;;1004.97;938.73;;;;;;;10.92;61.63;101107.13;685896;28;44420;-66
2022/05/31 00:58:08;;;;;;;1007.75;941.47;;;;;;;10.93;61.31;101109.66;683477;28;138041;-66
2022/05/31 00:58:34;;;;;;;1013.03;946.42;;;;;;;10.94;61.57;101107.81;685626;28;115189;-67
2022/05/31 00:59:09;;;;;;;998.60;932.38;;;;;;;10.92;61.82;101099.03;683475;28;161201;-66
2022/05/31 00:59:33;;;;;;;961.38;897.50;;;;;;;10.94;61.59;101105.97;687003;28;113198;-65
2022/05/31 00:59:56;;;;;;;979.00;914.38;;;;;;;10.94;61.58;101111.38;683745;28;112082;-66
2022/05/31 01:00:18;;;;;;;982.75;917.92;;;;;;;10.94;61.52;101108.66;686001;28;68332;-66
2022/05/31 01:00:41;;;;;;;977.45;912.83;;;;;;;10.95;61.74;101114.91;686591;28;44356;-66
2022/05/31 01:01:04;;;;;;;987.75;922.67;;;;;;;10.96;61.42;101108.50;685737;28;69291;-66
2022/05/31 01:01:26;;;;;;;989.03;924.15;;;;;;;10.94;61.58;101108.66;686449;28;70112;-67
2022/05/31 01:01:51;;;;;;;969.80;905.72;;;;;;;10.95;61.78;101114.91;689574;28;44367;-67
2022/05/31 01:02:15;;;;;;;984.35;919.83;;;;;;;10.92;61.56;101105.25;689279;28;115260;-66
2022/05/31 01:02:36;;;;;;;983.45;918.85;;;;;;;10.94;61.64;101105.97;689905;28;92236;-66
2022/05/31 01:02:58;;;;;;;978.33;914.03;;;;;;;10.94;61.75;101113.19;692019;28;23522;-68
2022/05/31 01:03:22;;;;;;;978.05;913.78;;;;;;;10.93;61.81;101100.72;691249;28;46334;-67
2022/05/31 01:03:45;;;;;;;967.97;903.90;;;;;;;10.92;61.83;101110.66;689705;28;92141;-66
2022/05/31 01:04:06;;;;;;;971.97;907.95;;;;;;;10.93;61.91;101108.84;690725;28;69268;-67
2022/05/31 01:04:31;;;;;;;979.03;914.67;;;;;;;10.91;61.83;101111.72;690636;28;21260;-66
2022/05/31 01:04:56;;;;;;;980.55;915.97;;;;;;;10.91;62.02;101109.00;685685;28;134024;-66
2022/05/31 01:05:19;;;;;;;960.35;896.60;;;;;;;10.89;62.08;101108.31;688458;28;116008;-66
2022/05/31 01:05:41;;;;;;;972.05;907.85;;;;;;;10.91;61.73;101111.72;690090;28;67483;-66
2022/05/31 01:06:02;;;;;;;986.33;921.78;;;;;;;10.91;62.12;101106.31;691170;28;46401;-67
2022/05/31 01:06:25;;;;;;;986.92;922.30;;;;;;;10.92;61.89;101113.38;690776;28;45230;-67
2022/05/31 01:06:46;;;;;;;976.67;912.40;;;;;;;10.91;62.06;101103.59;690907;28;44087;-67
2022/05/31 01:07:08;;;;;;;966.38;902.35;;;;;;;10.90;61.93;101103.78;688399;28;22235;-66
2022/05/31 01:07:30;;;;;;;964.03;900.17;;;;;;;10.92;62.17;101107.13;684474;28;69413;-66
2022/05/31 01:07:51;;;;;;;978.67;914.30;;;;;;;10.92;62.19;101104.44;685724;28;22420;-66
2022/05/31 01:08:12;;;;;;;987.38;922.67;;;;;;;10.92;62.13;101107.97;686265;28;23501;-67
2022/05/31 01:08:55;;;;;;;954.88;891.33;;;;;;;10.93;61.92;101101.56;679895;28;137189;-66
2022/05/31 01:09:29;;;;;;;966.03;901.95;;;;;;;10.93;62.08;101101.56;683860;28;137406;-66
2022/05/31 01:10:11;;;;;;;969.70;905.63;;;;;;;10.93;61.74;101104.25;684287;28;157256;-67
2022/05/31 01:10:50;;;;;;;986.55;921.83;;;;;;;10.92;61.96;101105.25;687525;28;138556;-66
2022/05/31 01:11:35;;;;;;;988.58;923.80;;;;;;;10.91;62.15;101106.31;690597;28;60737;-66
2022/05/31 01:12:15;;;;;;;979.05;914.50;;;;;;;10.91;62.09;101108.13;687759;28;138213;-66
2022/05/31 01:12:56;;;;;;;979.85;915.38;;;;;;;10.92;62.20;101104.44;688121;28;135803;-67
2022/05/31 01:13:36;;;;;;;972.63;908.35;;;;;;;10.88;62.26;101093.13;688443;28;137701;-66
2022/05/31 01:14:16;;;;;;;972.72;908.67;;;;;;;10.93;61.87;101104.25;687925;28;137357;-66
2022/05/31 01:14:56;;;;;;;966.08;902.05;;;;;;;10.92;62.18;101099.88;686777;28;157009;-66
2022/05/31 01:15:37;;;;;;;960.03;896.05;;;;;;;10.93;62.06;101093.44;686966;28;138052;-66
2022/05/31 01:16:17;;;;;;;972.55;908.30;;;;;;;10.94;62.03;101094.28;687623;28;137829;-66
2022/05/31 01:17:00;;;;;;;966.78;902.55;;;;;;;10.94;61.90;101100.56;687681;28;139402;-65
2022/05/31 01:17:42;;;;;;;988.63;923.70;;;;;;;10.95;62.12;101099.53;687956;28;136088;-67
2022/05/31 01:18:22;;;;;;;966.72;902.72;;;;;;;10.97;62.02;101099.34;687891;28;136002;-66
2022/05/31 01:20:05;;;;;;;994.67;929.58;;;;;;;10.96;61.85;101100.38;677991;28;156412;-67
2022/05/31 01:20:39;;;;;;;985.22;920.58;;;;;;;10.95;61.86;101098.69;676743;28;138159;-66
2022/05/31 01:21:06;;;;;;;985.58;920.97;;;;;;;10.90;61.73;101095.66;674689;29;138139;-67
2022/05/31 01:21:47;;;;;;;992.35;927.50;;;;;;;10.93;61.92;101098.03;674643;29;137496;-67
2022/05/31 01:22:33;;;;;;;1003.50;938.20;;;;;;;10.93;62.07;101095.31;674452;29;137700;-67
2022/05/31 01:22:58;;;;;;;1000.38;935.28;;;;;;;10.90;61.85;101096.50;677839;28;136179;-66
2022/05/31 01:23:22;;;;;;;1006.70;941.17;;;;;;;10.91;61.96;101092.78;677290;29;137827;-66
2022/05/31 01:23:48;;;;;;;1010.53;944.95;;;;;;;10.90;62.13;101091.09;677481;29;46511;-67
2022/05/31 01:24:13;;;;;;;1002.40;937.13;;;;;;;10.87;61.99;101094.13;674604;29;136396;-66
2022/05/31 01:24:42;;;;;;;1010.10;944.45;;;;;;;10.89;61.87;101093.97;674378;29;116404;-67
2022/05/31 01:25:11;;;;;;;1012.65;946.95;;;;;;;10.88;61.78;101097.66;675130;29;134558;-64
2022/05/31 01:25:57;;;;;;;1000.72;935.55;;;;;;;10.86;62.09;101097.00;677997;28;138584;-67
2022/05/31 01:26:24;;;;;;;1003.35;938.05;;;;;;;10.84;62.30;101090.94;678400;28;135994;-67
2022/05/31 01:26:51;;;;;;;1003.65;938.33;;;;;;;10.81;62.20;101094.81;682043;28;136309;-65
2022/05/31 01:27:19;;;;;;;1009.33;943.63;;;;;;;10.81;62.32;101100.22;682125;28;94057;-63
2022/05/31 01:27:45;;;;;;;1010.15;944.42;;;;;;;10.81;62.25;101097.50;684623;28;136260;-67
2022/05/31 01:28:13;;;;;;;991.28;926.40;;;;;;;10.81;62.13;101097.50;685979;28;137615;-65
2022/05/31 01:28:43;;;;;;;1006.03;940.58;;;;;;;10.80;62.25;101099.38;684286;28;137627;-66
2022/05/31 01:29:08;;;;;;;996.78;931.67;;;;;;;10.81;62.02;101102.91;684098;28;137779;-66
2022/05/31 01:29:32;;;;;;;996.53;931.50;;;;;;;10.80;62.29;101098.53;684576;28;115758;-65
2022/05/31 01:29:54;;;;;;;988.67;923.90;;;;;;;10.80;62.43;101099.38;684080;28;111936;-66
2022/05/31 01:30:16;;;;;;;991.30;926.47;;;;;;;10.81;62.20;101101.09;687251;28;44150;-65
2022/05/31 01:30:42;;;;;;;1002.58;937.17;;;;;;;10.78;62.12;101092.44;690840;28;23324;-65
2022/05/31 01:31:09;;;;;;;1008.35;942.63;;;;;;;10.80;62.33;101107.50;684709;28;138856;-66
2022/05/31 01:31:34;;;;;;;1008.33;942.65;;;;;;;10.80;62.33;101106.66;684300;28;138543;-65
2022/05/31 01:31:57;;;;;;;995.78;930.63;;;;;;;10.79;62.50;101110.34;683696;28;138889;-67
2022/05/31 01:32:18;;;;;;;1011.80;946.03;;;;;;;10.77;62.28;101105.13;682989;28;69429;-67
2022/05/31 01:32:43;;;;;;;1006.17;940.63;;;;;;;10.77;62.41;101107.00;684591;28;23375;-64
2022/05/31 01:33:08;;;;;;;1004.05;938.72;;;;;;;10.76;62.48;101108.81;685268;28;98901;-67
2022/05/31 01:33:36;;;;;;;1006.38;940.80;;;;;;;10.75;62.48;101101.75;684795;28;113804;-67
2022/05/31 01:34:01;;;;;;;999.63;934.38;;;;;;;10.74;62.53;101102.75;685150;28;137851;-67
2022/05/31 01:34:29;;;;;;;1001.45;936.15;;;;;;;10.75;62.64;101104.47;687798;28;136521;-67
2022/05/31 01:34:54;;;;;;;999.58;934.25;;;;;;;10.73;62.26;101102.94;687001;28;138534;-67
2022/05/31 01:35:19;;;;;;;1017.30;951.35;;;;;;;10.71;62.46;101103.09;687406;28;115868;-66
2022/05/31 01:35:40;;;;;;;999.05;933.78;;;;;;;10.71;62.05;101104.97;688721;28;114652;-67
2022/05/31 01:36:09;;;;;;;997.03;931.92;;;;;;;10.72;62.54;101101.22;692032;28;21519;-66
2022/05/31 01:36:34;;;;;;;1000.03;934.72;;;;;;;10.72;62.51;101098.53;686802;28;137727;-65
2022/05/31 01:36:56;;;;;;;984.65;919.90;;;;;;;10.73;62.41;101103.75;684015;28;113474;-66
2022/05/31 01:37:19;;;;;;;996.75;931.53;;;;;;;10.71;62.88;101105.78;686446;28;69220;-66
2022/05/31 01:37:47;;;;;;;1006.30;940.83;;;;;;;10.70;62.89;101106.81;687119;28;46351;-67
2022/05/31 01:38:11;;;;;;;1001.03;935.63;;;;;;;10.67;62.63;101096.34;683965;28;136997;-66
2022/05/31 01:38:39;;;;;;;1003.20;937.80;;;;;;;10.69;62.68;101102.44;683464;28;69223;-66
2022/05/31 01:39:04;;;;;;;1008.13;942.63;;;;;;;10.70;62.46;101101.41;685277;28;136259;-66
2022/05/31 01:39:29;;;;;;;1004.72;939.33;;;;;;;10.69;62.44;101098.88;680952;28;136392;-66
2022/05/31 01:39:53;;;;;;;1004.58;939.20;;;;;;;10.67;62.79;101099.03;681365;28;115280;-65
2022/05/31 01:40:20;;;;;;;1002.65;937.35;;;;;;;10.65;62.96;101098.38;682565;28;90695;-65
2022/05/31 01:40:48;;;;;;;1011.10;945.40;;;;;;;10.66;62.57;101099.19;683511;28;138050;-65
2022/05/31 01:41:16;;;;;;;1012.70;947.00;;;;;;;10.66;62.73;101101.91;684022;28;138994;-65
2022/05/31 01:41:42;;;;;;;1041.22;973.78;;;;;;;10.63;62.55;101098.53;687940;28;137567;-66
2022/05/31 01:42:05;;;;;;;1021.00;954.55;;;;;;;10.64;62.66;101099.38;688573;28;115137;-62
2022/05/31 01:42:32;;;;;;;999.78;934.60;;;;;;;10.62;62.74;101093.31;689778;28;92941;-65
2022/05/31 01:42:54;;;;;;;1009.72;944.08;;;;;;;10.64;62.92;101093.97;684362;28;135517;-66
2022/05/31 01:43:15;;;;;;;1004.28;938.92;;;;;;;10.63;62.77;101103.94;689588;28;20875;-65
2022/05/31 01:43:37;;;;;;;1005.78;940.28;;;;;;;10.62;62.63;101101.41;688676;28;45252;-65
2022/05/31 01:44:00;;;;;;;1003.40;938.03;;;;;;;10.61;62.92;101095.16;688785;28;45328;-65
2022/05/31 01:44:23;;;;;;;1004.60;939.25;;;;;;;10.62;62.89;101104.94;687360;28;69430;-65
2022/05/31 01:44:48;;;;;;;999.90;934.75;;;;;;;10.62;63.05;101098.72;687630;28;67289;-65
2022/05/31 01:45:12;;;;;;;994.33;929.35;;;;;;;10.59;62.82;101094.47;688922;28;114956;-65
2022/05/31 01:45:36;;;;;;;987.88;923.05;;;;;;;10.60;62.73;101098.03;689922;28;90808;-65
2022/05/31 01:46:01;;;;;;;993.83;928.78;;;;;;;10.59;63.15;101099.88;685795;28;113323;-64
2022/05/31 01:46:24;;;;;;;1005.38;939.85;;;;;;;10.59;62.83;101099.03;685624;28;90356;-66
2022/05/31 01:46:47;;;;;;;1008.17;942.47;;;;;;;10.57;62.97;101095.69;686391;28;69435;-65
2022/05/31 01:47:08;;;;;;;998.22;932.83;;;;;;;10.58;62.75;101103.59;687195;28;69261;-66
2022/05/31 01:47:29;;;;;;;998.92;933.63;;;;;;;10.58;62.91;101095.50;689160;28;23459;-65
2022/05/31 01:47:50;;;;;;;1002.67;937.28;;;;;;;10.58;62.92;101095.50;686301;28;44293;-65
2022/05/31 01:48:14;;;;;;;996.97;931.80;;;;;;;10.60;63.18;101098.03;688991;28;23273;-65
2022/05/31 01:48:36;;;;;;;1007.15;941.55;;;;;;;10.59;62.98;101102.56;687609;28;67200;-65
2022/05/31 01:48:57;;;;;;;995.95;930.75;;;;;;;10.60;63.04;101098.03;688338;28;46481;-65
2022/05/31 01:49:19;;;;;;;1008.97;943.30;;;;;;;10.59;63.28;101099.03;688286;28;45229;-65
2022/05/31 01:49:42;;;;;;;1002.83;937.35;;;;;;;10.58;62.90;101091.94;687203;28;22463;-65
2022/05/31 01:50:09;;;;;;;1001.13;935.83;;;;;;;10.56;63.20;101097.50;683216;28;115112;-66
2022/05/31 01:50:32;;;;;;;1002.92;937.47;;;;;;;10.53;63.19;101097.00;682390;28;137851;-65
2022/05/31 01:50:53;;;;;;;992.90;927.80;;;;;;;10.54;63.12;101096.00;685371;28;46315;-65
2022/05/31 01:51:14;;;;;;;983.17;918.58;;;;;;;10.56;63.13;101094.81;685799;28;44329;-66